createdAt,value
2023-04-09T00:00:48.760Z,18.70
2023-04-09T00:03:16.179Z,18.52
2023-04-09T00:05:43.597Z,18.42
2023-04-09T00:08:11.087Z,18.02
2023-04-09T00:10:38.506Z,18.15
2023-04-09T00:13:05.897Z,17.55
2023-04-09T00:15:33.310Z,18.50
2023-04-09T00:18:00.748Z,17.50
2023-04-09T00:20:28.356Z,17.42
2023-04-09T00:22:56.488Z,18.60
2023-04-09T00:25:24.509Z,19.75
2023-04-09T00:27:52.164Z,19.45
2023-04-09T00:30:20.018Z,20.25
2023-04-09T00:32:47.653Z,19.67
2023-04-09T00:35:17.466Z,20.70
2023-04-09T00:37:45.370Z,19.63
2023-04-09T00:40:13.077Z,19.48
2023-04-09T00:42:41.669Z,19.40
2023-04-09T00:45:09.803Z,19.80
2023-04-09T00:47:37.612Z,19.23
2023-04-09T00:50:05.946Z,20.55
2023-04-09T00:52:33.794Z,19.80
2023-04-09T00:55:03.919Z,20.30
2023-04-09T00:57:31.478Z,21.05
2023-04-09T00:59:59.530Z,22.10
2023-04-09T01:02:27.212Z,20.83
2023-04-09T01:04:55.059Z,21.00
2023-04-09T01:07:32.842Z,19.23
2023-04-09T01:10:24.398Z,19.50
2023-04-09T01:15:29.781Z,23.45
2023-04-09T01:18:24.593Z,22.27
2023-04-09T01:20:59.633Z,21.27
2023-04-09T01:23:53.948Z,21.38
2023-04-09T01:26:49.144Z,22.85
2023-04-09T01:29:19.863Z,22.85
2023-04-09T01:31:49.569Z,21.95
2023-04-09T01:34:17.932Z,23.15
2023-04-09T01:36:55.374Z,23.23
2023-04-09T01:39:23.653Z,23.08
2023-04-09T01:41:51.517Z,25.35
2023-04-09T01:44:20.034Z,24.60
2023-04-09T01:46:49.217Z,23.42
2023-04-09T01:49:18.201Z,24.85
2023-04-09T01:51:47.361Z,25.17
2023-04-09T01:54:16.895Z,26.25
2023-04-09T01:56:48.744Z,27.40
2023-04-09T01:59:16.905Z,26.73
2023-04-09T02:01:46.855Z,27.50
2023-04-09T02:04:26.511Z,27.20
2023-04-09T02:07:12.804Z,28.23
2023-04-09T02:09:41.830Z,27.88
2023-04-09T02:12:13.674Z,28.95
2023-04-09T02:14:42.646Z,28.83
2023-04-09T02:17:10.373Z,29.48
2023-04-09T02:19:42.014Z,29.50
2023-04-09T02:22:10.253Z,27.67
2023-04-09T02:24:38.251Z,29.08
2023-04-09T02:27:06.308Z,28.38
2023-04-09T02:29:33.909Z,29.63
2023-04-09T02:32:01.514Z,27.73
2023-04-09T02:34:29.182Z,29.08
2023-04-09T02:36:56.693Z,29.13
2023-04-09T02:39:24.292Z,29.08
2023-04-09T02:41:52.179Z,27.17
2023-04-09T02:44:19.790Z,27.58
2023-04-09T02:46:47.961Z,29.63
2023-04-09T02:49:15.615Z,28.50
2023-04-09T02:51:43.084Z,29.05
2023-04-09T02:54:10.607Z,28.15
2023-04-09T02:56:38.069Z,29.15
2023-04-09T02:59:05.494Z,29.55
2023-04-09T03:01:33.312Z,29.83
2023-04-09T03:04:02.244Z,30.13
2023-04-09T03:06:29.938Z,28.05
2023-04-09T03:08:57.381Z,27.92
2023-04-09T03:11:25.179Z,29.92
2023-04-09T03:13:53.085Z,27.98
2023-04-09T03:16:20.964Z,28.88
2023-04-09T03:18:48.851Z,28.23
2023-04-09T03:21:16.808Z,30.27
2023-04-09T03:23:48.870Z,29.40
2023-04-09T03:26:16.526Z,29.42
2023-04-09T03:28:48.292Z,28.58
2023-04-09T03:31:16.110Z,27.58
2023-04-09T03:33:44.888Z,26.50
2023-04-09T03:36:13.110Z,29.30
2023-04-09T03:38:54.681Z,28.60
2023-04-09T03:41:30.764Z,28.80
2023-04-09T03:44:01.920Z,27.73
2023-04-09T03:46:35.936Z,29.88
2023-04-09T03:49:04.678Z,28.83
2023-04-09T03:51:40.726Z,27.95
2023-04-09T03:54:09.055Z,28.73
2023-04-09T03:56:36.610Z,28.85
2023-04-09T03:59:08.997Z,29.98
2023-04-09T04:01:40.754Z,29.45
2023-04-09T04:04:08.489Z,29.15
2023-04-09T04:06:46.116Z,29.48
2023-04-09T04:09:34.058Z,29.05
2023-04-09T04:12:06.616Z,29.42
2023-04-09T04:14:53.008Z,28.60
2023-04-09T04:17:33.730Z,30.25
2023-04-09T04:20:04.318Z,31.10
2023-04-09T04:22:37.042Z,33.15
2023-04-09T04:25:05.965Z,32.30
2023-04-09T04:27:33.496Z,32.70
2023-04-09T04:30:02.389Z,32.67
2023-04-09T04:32:43.418Z,33.35
2023-04-09T04:35:12.479Z,35.33
2023-04-09T04:37:42.443Z,37.67
2023-04-09T04:40:10.510Z,35.50
2023-04-09T04:42:41.945Z,37.10
2023-04-09T04:45:14.479Z,35.17
2023-04-09T04:47:51.971Z,32.40
2023-04-09T04:50:20.574Z,31.90
2023-04-09T04:53:14.182Z,29.92
2023-04-09T04:55:48.190Z,27.30
2023-04-09T04:58:22.312Z,24.42
2023-04-09T05:00:55.712Z,21.23
2023-04-09T05:03:25.960Z,22.23
2023-04-09T05:06:03.656Z,22.38
2023-04-09T05:08:39.506Z,22.48
2023-04-09T05:11:07.154Z,21.88
2023-04-09T05:13:38.772Z,22.73
2023-04-09T05:16:17.446Z,21.48
2023-04-09T05:18:47.807Z,20.23
2023-04-09T05:21:15.908Z,18.98
2023-04-09T05:23:45.594Z,20.17
2023-04-09T05:26:13.317Z,22.17
2023-04-09T05:31:23.750Z,19.33
2023-04-09T05:34:03.301Z,20.15
2023-04-09T05:36:38.557Z,22.38
2023-04-09T05:39:06.541Z,19.52
2023-04-09T05:41:34.121Z,19.92
2023-04-09T05:44:20.652Z,18.95
2023-04-09T05:46:49.525Z,20.27
2023-04-09T05:49:21.649Z,19.08
2023-04-09T05:51:52.580Z,20.17
2023-04-09T05:54:26.235Z,21.23
2023-04-09T05:56:53.726Z,19.35
2023-04-09T05:59:21.556Z,20.60
2023-04-09T06:01:49.099Z,19.90
2023-04-09T06:04:16.908Z,18.83
2023-04-09T06:06:44.718Z,19.45
2023-04-09T06:09:12.864Z,21.25
2023-04-09T06:11:40.391Z,20.70
2023-04-09T06:14:08.020Z,22.60
2023-04-09T06:16:36.540Z,21.25
2023-04-09T06:19:03.995Z,23.67
2023-04-09T06:21:31.442Z,22.23
2023-04-09T06:23:59.569Z,21.90
2023-04-09T06:26:27.061Z,22.13
2023-04-09T06:28:54.597Z,23.88
2023-04-09T06:31:22.090Z,25.48
2023-04-09T06:33:49.887Z,23.25
2023-04-09T06:36:17.359Z,23.73
2023-04-09T06:38:44.884Z,23.55
2023-04-09T06:41:12.868Z,24.15
2023-04-09T06:43:40.921Z,22.85
2023-04-09T06:46:09.578Z,24.92
2023-04-09T06:48:37.081Z,24.17
2023-04-09T06:51:06.464Z,25.83
2023-04-09T06:53:34.241Z,25.15
2023-04-09T06:56:01.772Z,24.92
2023-04-09T06:58:29.166Z,27.08
2023-04-09T07:00:56.683Z,24.85
2023-04-09T07:03:24.489Z,27.67
2023-04-09T07:05:52.144Z,27.50
2023-04-09T07:08:19.639Z,26.27
2023-04-09T07:10:47.721Z,25.95
2023-04-09T07:13:15.221Z,25.60
2023-04-09T07:15:42.837Z,24.52
2023-04-09T07:18:10.270Z,24.38
2023-04-09T07:20:39.234Z,24.52
2023-04-09T07:23:06.773Z,23.55
2023-04-09T07:25:34.478Z,21.45
2023-04-09T07:28:01.945Z,22.65
2023-04-09T07:30:29.395Z,21.17
2023-04-09T07:32:58.005Z,21.10
2023-04-09T07:35:25.579Z,22.25
2023-04-09T07:37:53.283Z,23.67
2023-04-09T07:40:20.888Z,22.98
2023-04-09T07:42:49.636Z,25.42
2023-04-09T07:45:17.257Z,22.45
2023-04-09T07:47:45.120Z,23.70
2023-04-09T07:50:12.801Z,23.48
2023-04-09T07:52:40.907Z,23.85
2023-04-09T07:55:08.646Z,23.08
2023-04-09T07:57:36.976Z,25.55
2023-04-09T08:00:05.807Z,22.55
2023-04-09T08:02:40.858Z,24.67
2023-04-09T08:05:09.193Z,25.73
2023-04-09T08:07:36.881Z,24.65
2023-04-09T08:10:05.899Z,24.85
2023-04-09T08:12:34.410Z,23.10
2023-04-09T08:15:03.712Z,25.85
2023-04-09T08:17:31.214Z,25.13
2023-04-09T08:19:58.690Z,25.77
2023-04-09T08:22:26.250Z,28.02
2023-04-09T08:24:55.360Z,26.70
2023-04-09T08:27:22.930Z,27.45
2023-04-09T08:29:50.713Z,27.88
2023-04-09T08:32:18.274Z,28.00
2023-04-09T08:34:45.934Z,28.77
2023-04-09T08:37:13.614Z,29.60
2023-04-09T08:39:41.221Z,33.30
2023-04-09T08:42:12.109Z,31.27
2023-04-09T08:44:40.941Z,33.10
2023-04-09T08:47:11.691Z,31.73
2023-04-09T08:49:42.250Z,31.45
2023-04-09T08:52:09.752Z,34.88
2023-04-09T08:54:37.205Z,36.70
2023-04-09T08:57:05.752Z,33.22
2023-04-09T08:59:37.020Z,34.17
2023-04-09T09:02:09.717Z,33.03
2023-04-09T09:05:04.002Z,31.92
2023-04-09T09:07:31.808Z,33.80
2023-04-09T09:10:02.511Z,33.80
2023-04-09T09:12:48.444Z,31.63
2023-04-09T09:15:29.367Z,33.03
2023-04-09T09:17:59.823Z,29.30
2023-04-09T09:20:27.712Z,26.70
2023-04-09T09:22:56.892Z,26.70
2023-04-09T09:25:25.918Z,28.33
2023-04-09T09:27:54.859Z,26.88
2023-04-09T09:30:24.220Z,28.52
2023-04-09T09:33:04.635Z,26.70
2023-04-09T09:35:46.178Z,25.98
2023-04-09T09:38:13.691Z,26.77
2023-04-09T09:40:41.258Z,26.27
2023-04-09T09:43:08.698Z,26.75
2023-04-09T09:45:37.928Z,26.98
2023-04-09T09:48:06.050Z,25.58
2023-04-09T09:50:35.300Z,26.95
2023-04-09T09:53:06.030Z,25.33
2023-04-09T09:55:37.902Z,24.05
2023-04-09T09:58:16.599Z,23.35
2023-04-09T10:00:48.456Z,21.98
2023-04-09T10:03:21.371Z,21.00
2023-04-09T10:05:50.731Z,19.45
2023-04-09T10:08:18.452Z,19.25
2023-04-09T10:10:46.804Z,20.02
2023-04-09T10:13:51.266Z,21.05
2023-04-09T10:16:20.709Z,20.02
2023-04-09T10:18:48.252Z,18.55
2023-04-09T10:21:34.259Z,21.40
2023-04-09T10:24:05.783Z,18.83
2023-04-09T10:26:34.150Z,21.75
2023-04-09T10:29:11.536Z,19.70
2023-04-09T10:32:03.108Z,17.40
2023-04-09T10:34:35.166Z,15.93
2023-04-09T10:37:02.955Z,16.08
2023-04-09T10:39:33.594Z,15.52
2023-04-09T10:42:04.781Z,14.55
2023-04-09T10:44:32.279Z,14.80
2023-04-09T10:47:00.566Z,15.52
2023-04-09T10:49:35.202Z,16.83
2023-04-09T10:52:12.745Z,16.80
2023-04-09T10:54:46.209Z,17.20
2023-04-09T10:57:21.579Z,16.58
2023-04-09T10:59:51.207Z,19.15
2023-04-09T11:02:37.903Z,19.65
2023-04-09T11:05:18.173Z,20.50
2023-04-09T11:07:52.278Z,19.90
2023-04-09T11:10:20.986Z,16.27
2023-04-09T11:12:49.379Z,17.40
2023-04-09T11:15:18.441Z,15.05
2023-04-09T11:17:49.775Z,14.85
2023-04-09T11:20:20.863Z,15.95
2023-04-09T11:22:50.438Z,16.38
2023-04-09T11:25:22.389Z,17.40
2023-04-09T11:27:51.823Z,16.88
2023-04-09T11:30:19.990Z,17.80
2023-04-09T11:32:49.258Z,18.27
2023-04-09T11:35:19.132Z,18.05
2023-04-09T11:37:47.789Z,16.05
2023-04-09T11:40:22.532Z,16.77
2023-04-09T11:42:52.320Z,17.23
2023-04-09T11:45:23.256Z,17.95
2023-04-09T11:50:20.247Z,17.02
2023-04-09T11:52:49.218Z,19.38
2023-04-09T11:55:27.341Z,19.73
2023-04-09T11:58:01.046Z,19.85
2023-04-09T12:00:29.259Z,18.52
2023-04-09T12:03:04.975Z,17.58
2023-04-09T12:05:34.706Z,17.45
2023-04-09T12:08:07.561Z,14.75
2023-04-09T12:10:37.380Z,17.60
2023-04-09T12:13:10.433Z,15.93
2023-04-09T12:15:41.226Z,17.55
2023-04-09T12:18:10.377Z,16.00
2023-04-09T12:20:39.961Z,16.80
2023-04-09T12:23:08.495Z,17.55
2023-04-09T12:25:37.945Z,18.10
2023-04-09T12:28:07.049Z,18.42
2023-04-09T12:30:35.570Z,18.15
2023-04-09T12:33:04.054Z,17.38
2023-04-09T12:35:32.232Z,18.10
2023-04-09T12:38:00.694Z,16.38
2023-04-09T12:40:28.266Z,17.35
2023-04-09T12:42:55.938Z,16.10
2023-04-09T12:45:23.620Z,16.30
2023-04-09T12:47:51.247Z,17.73
2023-04-09T12:50:18.866Z,17.88
2023-04-09T12:52:46.579Z,18.55
2023-04-09T12:55:14.906Z,20.83
2023-04-09T12:57:47.130Z,18.75
2023-04-09T13:00:15.750Z,17.63
2023-04-09T13:02:43.726Z,17.13
2023-04-09T13:05:12.132Z,16.42
2023-04-09T13:07:42.715Z,15.60
2023-04-09T13:10:11.171Z,16.17
2023-04-09T13:12:38.699Z,15.38
2023-04-09T13:15:07.179Z,16.02
2023-04-09T13:17:34.836Z,14.90
2023-04-09T13:20:03.857Z,14.13
2023-04-09T13:22:31.303Z,15.88
2023-04-09T13:24:58.732Z,14.68
2023-04-09T13:27:26.408Z,14.88
2023-04-09T13:29:53.782Z,15.18
2023-04-09T13:32:23.319Z,14.30
2023-04-09T13:34:51.178Z,14.25
2023-04-09T13:37:18.594Z,14.43
2023-04-09T13:39:46.461Z,14.60
2023-04-09T13:42:14.548Z,12.50
2023-04-09T13:44:45.050Z,9.25
2023-04-09T13:47:14.550Z,9.35
2023-04-09T13:49:42.982Z,8.07
2023-04-09T13:52:11.029Z,9.63
2023-04-09T13:54:38.677Z,8.82
2023-04-09T13:57:06.573Z,7.85
2023-04-09T13:59:34.016Z,7.47
2023-04-09T14:02:01.713Z,8.68
2023-04-09T14:04:29.548Z,6.72
2023-04-09T14:06:57.831Z,5.13
2023-04-09T14:09:25.468Z,6.47
2023-04-09T14:11:54.848Z,6.72
2023-04-09T14:14:22.383Z,8.25
2023-04-09T14:16:51.185Z,8.63
2023-04-09T14:19:18.576Z,6.70
2023-04-09T14:21:46.111Z,7.05
2023-04-09T14:24:13.696Z,7.22
2023-04-09T14:26:41.778Z,5.47
2023-04-09T14:29:09.353Z,6.10
2023-04-09T14:31:36.918Z,6.65
2023-04-09T14:34:04.792Z,6.80
2023-04-09T14:36:32.443Z,6.75
2023-04-09T14:39:00.202Z,7.32
2023-04-09T14:41:28.281Z,7.03
2023-04-09T14:43:55.749Z,7.07
2023-04-09T14:46:23.266Z,6.20
2023-04-09T14:48:50.900Z,5.97
2023-04-09T14:51:18.536Z,6.68
2023-04-09T14:53:46.399Z,6.57
2023-04-09T14:56:14.147Z,6.13
2023-04-09T14:58:41.680Z,6.20
2023-04-09T15:01:09.164Z,5.10
2023-04-09T15:03:36.785Z,5.45
2023-04-09T15:06:04.824Z,5.22
2023-04-09T15:08:32.295Z,5.90
2023-04-09T15:10:59.682Z,6.28
2023-04-09T15:13:27.082Z,5.25
2023-04-09T15:15:54.674Z,5.63
2023-04-09T15:18:22.124Z,5.60
2023-04-09T15:20:50.530Z,7.70
2023-04-09T15:23:17.961Z,5.32
2023-04-09T15:25:45.461Z,5.05
2023-04-09T15:28:14.404Z,5.55
2023-04-09T15:30:42.062Z,5.03
2023-04-09T15:33:09.606Z,4.50
2023-04-09T15:35:37.800Z,5.43
2023-04-09T15:38:05.413Z,4.35
2023-04-09T15:40:32.897Z,4.57
2023-04-09T15:43:00.632Z,5.57
2023-04-09T15:45:28.152Z,5.65
2023-04-09T15:47:55.851Z,5.40
2023-04-09T15:50:23.487Z,5.15
2023-04-09T15:52:51.722Z,6.18
2023-04-09T15:55:19.268Z,6.93
2023-04-09T15:57:46.760Z,9.02
2023-04-09T16:00:15.467Z,9.30
2023-04-09T16:02:43.104Z,10.27
2023-04-09T16:05:10.859Z,8.95
2023-04-09T16:07:39.655Z,10.07
2023-04-09T16:10:08.193Z,10.20
2023-04-09T16:12:35.827Z,11.05
2023-04-09T16:15:03.462Z,10.57
2023-04-09T16:17:31.125Z,12.23
2023-04-09T16:19:58.803Z,12.10
2023-04-09T16:22:26.238Z,14.00
2023-04-09T16:24:53.627Z,15.07
2023-04-09T16:27:21.925Z,15.80
2023-04-09T16:29:49.415Z,14.48
2023-04-09T16:32:17.410Z,14.05
2023-04-09T16:34:44.797Z,13.60
2023-04-09T16:37:12.262Z,15.98
2023-04-09T16:39:39.974Z,14.30
2023-04-09T16:42:07.668Z,17.73
2023-04-09T16:44:35.728Z,13.57
2023-04-09T16:47:03.331Z,13.60
2023-04-09T16:49:31.481Z,12.68
2023-04-09T16:51:58.939Z,13.85
2023-04-09T16:54:26.405Z,10.73
2023-04-09T16:56:55.902Z,10.18
2023-04-09T16:59:23.405Z,10.82
2023-04-09T17:01:52.511Z,9.18
2023-04-09T17:04:20.384Z,7.45
2023-04-09T17:06:48.049Z,6.88
2023-04-09T17:09:16.315Z,5.30
2023-04-09T17:11:44.567Z,6.75
2023-04-09T17:14:12.680Z,5.55
2023-04-09T17:16:40.259Z,4.93
2023-04-09T17:19:08.877Z,4.20
2023-04-09T17:21:36.452Z,4.28
2023-04-09T17:24:04.002Z,4.47
2023-04-09T17:26:31.705Z,4.38
2023-04-09T17:28:59.104Z,4.53
2023-04-09T17:31:27.583Z,4.82
2023-04-09T17:33:55.193Z,5.68
2023-04-09T17:36:23.048Z,7.80
2023-04-09T17:38:52.941Z,4.40
2023-04-09T17:41:20.758Z,4.50
2023-04-09T17:43:48.655Z,4.68
2023-04-09T17:46:17.250Z,4.90
2023-04-09T17:48:44.949Z,5.25
2023-04-09T17:51:19.456Z,5.28
2023-04-09T17:53:47.457Z,5.72
2023-04-09T17:56:16.916Z,8.00
2023-04-09T17:58:45.000Z,8.10
2023-04-09T18:01:13.702Z,8.20
2023-04-09T18:03:47.799Z,8.50
2023-04-09T18:06:16.597Z,9.38
2023-04-09T18:08:44.051Z,10.63
2023-04-09T18:11:13.337Z,9.57
2023-04-09T18:13:41.300Z,15.63
2023-04-09T18:16:10.666Z,15.70
2023-04-09T18:18:38.921Z,13.40
2023-04-09T18:21:06.802Z,13.20
2023-04-09T18:23:34.771Z,12.95
2023-04-09T18:26:02.471Z,12.63
2023-04-09T18:28:34.162Z,12.77
2023-04-09T18:31:03.324Z,14.00
2023-04-09T18:33:30.837Z,12.98
2023-04-09T18:36:01.633Z,13.30
2023-04-09T18:38:29.801Z,12.85
2023-04-09T18:40:57.724Z,13.15
2023-04-09T18:43:25.990Z,12.57
2023-04-09T18:45:53.968Z,13.00
2023-04-09T18:48:21.546Z,12.60
2023-04-09T18:50:49.165Z,11.95
2023-04-09T18:53:16.688Z,10.38
2023-04-09T18:55:44.254Z,11.27
2023-04-09T18:58:15.740Z,10.25
2023-04-09T19:00:43.645Z,12.02
2023-04-09T19:03:12.270Z,9.40
2023-04-09T19:05:40.428Z,38.50
2023-04-09T19:08:09.667Z,23.58
2023-04-09T19:10:37.394Z,10.13
2023-04-09T19:13:04.822Z,8.98
2023-04-09T19:15:32.491Z,8.77
2023-04-09T19:18:00.325Z,9.52
2023-04-09T19:20:28.646Z,10.50
2023-04-09T19:22:57.247Z,8.15
2023-04-09T19:25:24.726Z,9.25
2023-04-09T19:27:54.114Z,9.88
2023-04-09T19:30:21.650Z,10.38
2023-04-09T19:32:49.229Z,10.90
2023-04-09T19:35:16.977Z,8.45
2023-04-09T19:37:44.855Z,10.18
2023-04-09T19:40:15.417Z,10.02
2023-04-09T19:42:42.972Z,8.50
2023-04-09T19:45:10.976Z,9.07
2023-04-09T19:47:38.434Z,13.30
2023-04-09T19:50:06.280Z,11.32
2023-04-09T19:52:33.744Z,9.57
2023-04-09T19:55:01.910Z,8.43
2023-04-09T19:57:31.619Z,8.90
2023-04-09T19:59:59.030Z,9.10
2023-04-09T20:02:27.403Z,8.35
2023-04-09T20:04:55.063Z,9.90
2023-04-09T20:07:22.529Z,9.05
2023-04-09T20:09:50.546Z,8.15
2023-04-09T20:12:19.233Z,8.65
2023-04-09T20:14:47.050Z,9.45
2023-04-09T20:17:14.497Z,9.20
2023-04-09T20:19:41.912Z,8.60
2023-04-09T20:22:09.409Z,9.00
2023-04-09T20:24:38.342Z,8.82
2023-04-09T20:27:05.820Z,8.38
2023-04-09T20:29:33.826Z,8.23
2023-04-09T20:32:02.196Z,8.13
2023-04-09T20:34:29.606Z,8.73
2023-04-09T20:36:57.056Z,8.85
2023-04-09T20:39:26.828Z,8.95
2023-04-09T20:41:55.264Z,8.60
2023-04-09T20:44:24.396Z,8.73
2023-04-09T20:46:51.955Z,8.30
2023-04-09T20:49:19.342Z,8.65
2023-04-09T20:51:46.860Z,8.30
2023-04-09T20:54:14.561Z,9.35
2023-04-09T20:56:43.653Z,10.60
2023-04-09T20:59:11.858Z,10.65
2023-04-09T21:01:39.325Z,11.10
2023-04-09T21:04:07.196Z,9.95
2023-04-09T21:06:34.813Z,9.77
2023-04-09T21:09:02.260Z,9.65
2023-04-09T21:11:31.235Z,9.90
2023-04-09T21:13:59.446Z,10.35
2023-04-09T21:16:28.488Z,10.02
2023-04-09T21:18:56.555Z,9.60
2023-04-09T21:21:27.282Z,9.75
2023-04-09T21:23:55.314Z,10.00
2023-04-09T21:26:22.833Z,10.15
2023-04-09T21:28:50.937Z,10.73
2023-04-09T21:31:18.588Z,10.45
2023-04-09T21:33:46.164Z,10.73
2023-04-09T21:36:13.641Z,12.45
2023-04-09T21:38:41.331Z,10.20
2023-04-09T21:41:09.292Z,10.88
2023-04-09T21:43:38.368Z,10.32
2023-04-09T21:46:05.945Z,10.77
2023-04-09T21:48:33.490Z,11.85
2023-04-09T21:51:01.188Z,12.43
2023-04-09T21:53:31.040Z,11.73
2023-04-09T21:55:58.373Z,11.27
2023-04-09T21:58:26.097Z,10.90
2023-04-09T22:00:54.383Z,10.63
2023-04-09T22:03:22.523Z,10.75
2023-04-09T22:05:50.368Z,10.68
2023-04-09T22:08:18.379Z,9.75
2023-04-09T22:10:46.237Z,10.63
2023-04-09T22:13:13.657Z,10.18
2023-04-09T22:15:42.461Z,10.82
2023-04-09T22:18:09.933Z,10.73
2023-04-09T22:20:37.566Z,11.82
2023-04-09T22:23:05.060Z,11.52
2023-04-09T22:25:34.996Z,10.75
2023-04-09T22:28:02.590Z,10.98
2023-04-09T22:30:30.111Z,10.93
2023-04-09T22:32:57.596Z,10.70
2023-04-09T22:35:25.346Z,10.82
2023-04-09T22:37:52.756Z,12.30
2023-04-09T22:40:20.211Z,11.65
2023-04-09T22:42:48.069Z,11.65
2023-04-09T22:45:15.671Z,11.00
2023-04-09T22:47:43.163Z,11.38
2023-04-09T22:50:11.423Z,12.00
2023-04-09T22:52:38.812Z,11.82
2023-04-09T22:55:09.973Z,11.93
2023-04-09T22:57:38.371Z,12.25
2023-04-09T23:00:06.964Z,11.95
2023-04-09T23:02:34.453Z,12.65
2023-04-09T23:05:02.146Z,11.98
2023-04-09T23:07:29.675Z,12.57
2023-04-09T23:09:57.109Z,12.38
2023-04-09T23:12:24.540Z,13.50
2023-04-09T23:14:53.202Z,12.88
2023-04-09T23:17:22.640Z,13.40
2023-04-09T23:19:52.335Z,12.02
2023-04-09T23:22:19.802Z,13.10
2023-04-09T23:24:47.264Z,13.18
2023-04-09T23:27:14.783Z,14.45
2023-04-09T23:29:42.200Z,13.73
2023-04-09T23:32:09.764Z,13.13
2023-04-09T23:34:37.275Z,13.88
2023-04-09T23:37:04.716Z,13.55
2023-04-09T23:39:32.140Z,13.88
2023-04-09T23:41:59.547Z,13.85
2023-04-09T23:44:27.073Z,14.43
2023-04-09T23:46:54.465Z,14.73
2023-04-09T23:49:21.926Z,15.05
2023-04-09T23:51:51.256Z,14.27
2023-04-09T23:54:19.018Z,15.05
2023-04-09T23:56:46.848Z,14.98
2023-04-09T23:59:14.305Z,15.55
